Time;durP1;ratioP1;P1;durP2;ratioP2;P2;SDS_P1;SDS_P2;PMS_P1;PMS_P2;Temp;Humidity;BMP_temperature;BMP_pressure;BME280_temperature;BME280_humidity;BME280_pressure;Samples;Min_cycle;Max_cycle;Signal;HPM_P1;HPM_P2
2023/08/16 00:02:50;;;;;;;5.85;1.35;;;;;;;19.59;100.00;101676.00;6300117;28;20075;-71
2023/08/16 00:05:52;;;;;;;1.55;1.02;;;;;;;19.53;100.00;101674.66;6299713;28;20059;-71
2023/08/16 00:08:58;;;;;;;2.17;1.10;;;;;;;19.55;100.00;101666.53;6300383;28;20059;-71
2023/08/16 00:12:01;;;;;;;5.05;1.42;;;;;;;19.53;100.00;101672.00;6300105;28;20090;-71
2023/08/16 00:15:02;;;;;;;2.65;1.25;;;;;;;19.52;100.00;101672.94;6300013;28;20055;-71
2023/08/16 00:18:04;;;;;;;1.67;0.95;;;;;;;19.48;100.00;101667.00;6300079;28;20135;-71
2023/08/16 00:21:06;;;;;;;3.30;0.88;;;;;;;19.46;100.00;101663.59;6300299;28;20044;-71
2023/08/16 00:24:08;;;;;;;1.90;1.13;;;;;;;19.43;100.00;101668.31;6299857;28;20044;-71
2023/08/16 00:27:10;;;;;;;4.65;1.30;;;;;;;19.40;100.00;101668.56;6299730;28;20059;-71
2023/08/16 00:30:13;;;;;;;2.72;1.45;;;;;;;19.38;100.00;101666.00;6299982;28;20052;-71
2023/08/16 00:33:14;;;;;;;3.20;1.13;;;;;;;19.34;100.00;101667.19;6299561;28;20053;-71
2023/08/16 00:36:16;;;;;;;4.78;1.02;;;;;;;19.33;100.00;101664.66;6299674;28;20433;-71
2023/08/16 00:39:17;;;;;;;1.52;0.80;;;;;;;19.27;100.00;101664.16;6299800;28;20044;-71
2023/08/16 00:42:20;;;;;;;3.47;1.08;;;;;;;19.28;100.00;101657.00;6299808;28;20049;-71
2023/08/16 00:45:21;;;;;;;1.48;0.93;;;;;;;19.30;100.00;101652.38;6299586;28;20428;-71
2023/08/16 00:48:23;;;;;;;2.80;1.00;;;;;;;19.25;100.00;101655.41;6299785;28;20052;-71
2023/08/16 00:51:24;;;;;;;2.55;1.02;;;;;;;19.24;100.00;101651.03;6299587;28;20048;-71
2023/08/16 00:54:26;;;;;;;3.50;1.50;;;;;;;19.13;100.00;101655.50;6299393;28;20048;-71
2023/08/16 00:57:28;;;;;;;2.45;1.30;;;;;;;19.06;100.00;101656.91;6299560;28;20056;-71
2023/08/16 01:00:30;;;;;;;2.83;1.40;;;;;;;19.00;100.00;101655.56;6299483;28;20248;-71
2023/08/16 01:03:32;;;;;;;1.10;1.00;;;;;;;18.98;100.00;101658.31;6299635;28;20428;-71
2023/08/16 01:06:33;;;;;;;5.20;1.35;;;;;;;18.98;100.00;101658.31;6301645;28;20063;-71
2023/08/16 01:09:35;;;;;;;4.63;1.45;;;;;;;18.93;100.00;101644.50;6304511;28;20048;-71
2023/08/16 01:12:47;;;;;;;1.65;1.27;;;;;;;18.87;100.00;101649.44;6303922;28;20425;-70
2023/08/16 01:15:51;;;;;;;1.77;1.10;;;;;;;18.88;100.00;101653.78;6303501;28;20360;-70
2023/08/16 01:18:53;;;;;;;3.60;1.05;;;;;;;18.83;100.00;101656.78;6303784;28;20048;-70
2023/08/16 01:22:05;;;;;;;2.25;1.20;;;;;;;18.81;100.00;101665.88;6303926;28;20044;-70
2023/08/16 01:25:20;;;;;;;1.27;1.10;;;;;;;18.83;100.00;101663.94;6303421;28;20045;-71
2023/08/16 01:28:24;;;;;;;3.88;1.25;;;;;;;18.81;100.00;101664.06;6303522;28;20056;-71
2023/08/16 01:31:25;;;;;;;3.05;1.20;;;;;;;18.80;100.00;101669.47;6303435;28;20052;-71
2023/08/16 01:34:27;;;;;;;1.67;1.42;;;;;;;18.74;100.00;101666.31;6303240;28;20072;-70
2023/08/16 01:37:29;;;;;;;1.15;1.00;;;;;;;18.75;100.00;101661.81;6303261;28;20326;-70
2023/08/16 01:40:35;;;;;;;3.17;1.17;;;;;;;18.69;100.00;101671.13;6303463;28;20052;-70
2023/08/16 01:43:38;;;;;;;2.08;1.15;;;;;;;18.63;100.00;101666.22;6303531;28;20048;-70
2023/08/16 01:46:42;;;;;;;4.07;1.70;;;;;;;18.54;100.00;101674.88;6302712;28;20051;-70
2023/08/16 01:49:44;;;;;;;3.63;0.90;;;;;;;18.55;100.00;101681.03;6302893;28;20048;-70
2023/08/16 01:52:48;;;;;;;2.75;1.20;;;;;;;18.52;100.00;101680.28;6303061;28;20044;-70
2023/08/16 01:55:49;;;;;;;2.60;1.05;;;;;;;18.57;100.00;101682.63;6302693;28;20056;-71
2023/08/16 01:58:52;;;;;;;3.15;1.33;;;;;;;18.59;100.00;101678.06;6302749;28;20436;-70
2023/08/16 02:01:53;;;;;;;1.58;1.15;;;;;;;18.63;100.00;101674.22;6302775;28;20045;-71
2023/08/16 02:04:54;;;;;;;5.45;1.23;;;;;;;18.63;100.00;101665.38;6302397;28;20045;-71
2023/08/16 02:07:56;;;;;;;3.85;1.48;;;;;;;18.61;100.00;101668.13;6302759;28;20044;-71
2023/08/16 02:10:57;;;;;;;6.10;1.90;;;;;;;18.63;100.00;101673.34;6302591;28;20344;-71
2023/08/16 02:14:00;;;;;;;4.07;1.13;;;;;;;18.67;100.00;101672.19;6302224;28;20045;-71
2023/08/16 02:17:01;;;;;;;1.42;1.05;;;;;;;18.69;100.00;101671.13;6300628;28;20355;-71
2023/08/16 02:20:03;;;;;;;2.80;1.10;;;;;;;18.71;100.00;101671.00;6302600;28;20056;-71
2023/08/16 02:23:05;;;;;;;6.90;1.48;;;;;;;18.72;100.00;101662.06;6302100;28;20049;-71
2023/08/16 02:26:06;;;;;;;1.88;1.17;;;;;;;18.72;100.00;101662.06;6301601;28;20455;-71
2023/08/16 02:29:09;;;;;;;2.13;0.85;;;;;;;18.67;100.00;101654.38;6302307;28;20053;-71
2023/08/16 02:32:10;;;;;;;2.35;1.10;;;;;;;18.67;100.00;101661.53;6301892;28;20048;-71
2023/08/16 02:35:13;;;;;;;4.97;1.10;;;;;;;18.64;100.00;101672.41;6293727;28;20049;-71
2023/08/16 02:38:14;;;;;;;2.70;1.27;;;;;;;18.63;100.00;101676.03;6301879;28;20048;-71
2023/08/16 02:41:15;;;;;;;2.88;1.10;;;;;;;18.62;100.00;101676.97;6302177;28;20052;-71
2023/08/16 02:44:18;;;;;;;5.38;1.20;;;;;;;18.64;100.00;101675.06;6301875;28;20383;-71
2023/08/16 02:47:20;;;;;;;7.20;1.02;;;;;;;18.67;100.00;101661.53;6301462;28;20075;-71
2023/08/16 02:50:21;;;;;;;2.97;1.55;;;;;;;18.67;100.00;101664.19;6301664;28;20063;-71
2023/08/16 02:53:22;;;;;;;1.73;0.88;;;;;;;18.70;100.00;101674.63;6301512;28;20045;-71
2023/08/16 02:56:24;;;;;;;2.25;0.80;;;;;;;18.71;100.00;101663.00;6301291;28;20451;-71
2023/08/16 02:59:26;;;;;;;2.20;1.30;;;;;;;18.67;100.00;101658.88;6301354;28;20352;-71
2023/08/16 03:02:28;;;;;;;2.95;1.25;;;;;;;18.60;100.00;101647.78;6301506;28;20053;-71
2023/08/16 03:05:29;;;;;;;6.00;0.95;;;;;;;18.60;100.00;101655.78;6300933;28;20059;-71
2023/08/16 03:08:31;;;;;;;1.83;1.33;;;;;;;18.52;100.00;101672.31;6301437;28;20059;-71
2023/08/16 03:11:32;;;;;;;2.33;1.15;;;;;;;18.50;100.00;101674.22;6301060;28;20436;-71
2023/08/16 03:14:35;;;;;;;3.13;1.25;;;;;;;18.51;100.00;101689.25;6300919;28;20044;-71
2023/08/16 03:17:36;;;;;;;4.47;1.15;;;;;;;18.57;100.00;101685.28;6301003;28;20055;-71
2023/08/16 03:20:38;;;;;;;8.80;1.88;;;;;;;18.59;100.00;101691.38;6300815;28;20467;-71
2023/08/16 03:23:39;;;;;;;2.58;1.30;;;;;;;18.58;100.00;101697.66;6300895;28;20052;-71
2023/08/16 03:26:40;;;;;;;2.35;1.10;;;;;;;18.57;100.00;101698.59;6300338;28;20052;-71
2023/08/16 03:29:43;;;;;;;3.17;1.10;;;;;;;18.55;100.00;101711.19;6300674;28;20052;-71
2023/08/16 03:32:45;;;;;;;2.35;1.45;;;;;;;18.56;100.00;101709.38;6300745;28;20045;-70
2023/08/16 03:35:46;;;;;;;2.70;1.02;;;;;;;18.52;100.00;101714.91;6300532;28;20056;-71
2023/08/16 03:38:47;;;;;;;1.80;1.00;;;;;;;18.48;100.00;101716.06;6300588;28;20056;-71
2023/08/16 03:41:49;;;;;;;1.85;1.17;;;;;;;18.47;100.00;101722.34;6300777;28;20048;-71
2023/08/16 03:44:52;;;;;;;5.75;1.48;;;;;;;18.42;100.00;101724.50;6300270;28;20051;-71
2023/08/16 03:47:54;;;;;;;5.97;1.40;;;;;;;18.40;100.00;101737.09;6300286;28;20463;-71
2023/08/16 03:50:56;;;;;;;3.88;1.40;;;;;;;18.42;100.00;101739.63;6299856;28;20052;-71
2023/08/16 03:53:57;;;;;;;1.30;1.02;;;;;;;18.45;100.00;101742.09;6299863;28;20467;-70
2023/08/16 03:56:58;;;;;;;3.55;1.30;;;;;;;18.45;100.00;101739.41;6300210;28;20348;-71
2023/08/16 04:00:04;;;;;;;8.82;1.60;;;;;;;18.41;100.00;101737.94;6300234;28;20048;-70
2023/08/16 04:03:05;;;;;;;8.73;1.30;;;;;;;18.40;100.00;101737.09;6300274;28;20045;-71
2023/08/16 04:06:10;;;;;;;3.65;1.50;;;;;;;18.40;100.00;101736.22;6299835;28;20451;-71
2023/08/16 04:09:12;;;;;;;1.73;1.20;;;;;;;18.34;100.00;101736.66;6300343;28;20057;-71
2023/08/16 04:12:13;;;;;;;3.60;1.48;;;;;;;18.31;100.00;101740.38;6300032;28;20456;-70
2023/08/16 04:15:16;;;;;;;3.38;1.50;;;;;;;18.20;100.00;101753.56;6300040;28;20056;-71
2023/08/16 04:18:17;;;;;;;2.92;1.50;;;;;;;18.16;100.00;101752.94;6300084;28;20063;-70
2023/08/16 04:21:19;;;;;;;1.30;1.15;;;;;;;18.12;100.00;101743.47;6300086;28;20354;-71
2023/08/16 04:24:20;;;;;;;3.47;1.80;;;;;;;18.17;100.00;101753.81;6299993;28;20048;-71
2023/08/16 04:27:21;;;;;;;6.63;1.50;;;;;;;18.15;100.00;101756.56;6319367;22;20075;-72
2023/08/16 04:30:24;;;;;;;5.65;1.98;;;;;;;18.12;100.00;101758.56;6299642;28;20067;-72
2023/08/16 04:33:26;;;;;;;5.43;2.10;;;;;;;18.10;100.00;101761.34;6303769;28;20052;-72
2023/08/16 04:36:27;;;;;;;4.18;1.90;;;;;;;18.12;100.00;101767.44;6302182;28;20052;-72
2023/08/16 04:39:28;;;;;;;3.28;1.10;;;;;;;18.17;100.00;101764.44;6274940;28;20211;-72
2023/08/16 04:42:34;;;;;;;5.53;1.48;;;;;;;18.13;100.00;101754.97;6279163;28;20051;-72
2023/08/16 04:45:37;;;;;;;5.35;1.42;;;;;;;18.11;100.00;101752.41;6287287;28;20049;-72
2023/08/16 04:48:38;;;;;;;9.43;1.60;;;;;;;18.07;100.00;101752.72;6299475;28;20056;-72
2023/08/16 04:51:40;;;;;;;5.20;1.63;;;;;;;18.08;100.00;101757.94;6304557;28;20052;-73
2023/08/16 04:54:41;;;;;;;4.95;1.85;;;;;;;18.12;100.00;101766.56;6304081;28;20462;-73
2023/08/16 04:57:44;;;;;;;5.63;1.70;;;;;;;18.11;100.00;101767.50;6304235;28;20048;-72
2023/08/16 05:00:47;;;;;;;4.18;1.50;;;;;;;18.13;100.00;101770.94;6304511;28;20052;-72
2023/08/16 05:03:50;;;;;;;4.10;1.88;;;;;;;18.14;100.00;101780.63;6303859;28;20048;-72
2023/08/16 05:06:51;;;;;;;4.65;1.88;;;;;;;18.17;100.00;101783.06;6304028;28;20086;-72
2023/08/16 05:09:53;;;;;;;1.38;1.27;;;;;;;18.12;100.00;101786.06;6303952;28;20364;-72
2023/08/16 05:12:54;;;;;;;3.75;1.80;;;;;;;18.11;100.00;101786.97;6304022;28;20044;-72
2023/08/16 05:15:57;;;;;;;3.72;1.90;;;;;;;18.10;100.00;101792.41;6303499;28;20053;-72
2023/08/16 05:18:58;;;;;;;6.85;2.15;;;;;;;18.10;100.00;101803.06;6304052;28;20049;-72
2023/08/16 05:21:59;;;;;;;4.82;1.63;;;;;;;18.07;100.00;101804.09;6303685;28;20040;-73
2023/08/16 05:25:01;;;;;;;3.20;1.55;;;;;;;18.07;100.00;101804.09;6303318;28;20067;-72
2023/08/16 05:28:03;;;;;;;3.47;1.65;;;;;;;18.06;100.00;101805.06;6303809;28;20055;-72
2023/08/16 05:31:09;;;;;;;2.95;1.10;;;;;;;18.00;100.00;101811.66;6303454;28;20057;-72
2023/08/16 05:34:10;;;;;;;2.10;1.25;;;;;;;17.95;100.00;101807.63;6303416;28;20044;-72
2023/08/16 05:37:12;;;;;;;3.78;1.48;;;;;;;17.93;100.00;101818.34;6303263;28;20071;-72
2023/08/16 05:40:13;;;;;;;5.57;1.85;;;;;;;17.94;100.00;101822.72;6303505;28;20049;-72
2023/08/16 05:43:15;;;;;;;1.48;1.17;;;;;;;17.97;100.00;101833.13;6293661;28;20053;-73
2023/08/16 05:46:17;;;;;;;2.55;1.48;;;;;;;17.99;100.00;101836.56;6258096;28;20046;-72
2023/08/16 05:49:19;;;;;;;6.78;1.83;;;;;;;18.00;100.00;101842.75;6255529;28;20460;-72
2023/08/16 05:52:20;;;;;;;5.43;1.83;;;;;;;17.96;100.00;101852.72;6276409;28;20057;-72
2023/08/16 05:55:22;;;;;;;6.50;1.80;;;;;;;17.89;100.00;101851.41;6283730;28;20056;-72
2023/08/16 05:58:23;;;;;;;3.00;1.55;;;;;;;17.90;100.00;101854.97;6277913;28;20045;-72
2023/08/16 06:01:26;;;;;;;7.22;2.33;;;;;;;17.90;100.00;101863.78;6283354;28;20053;-72
2023/08/16 06:04:28;;;;;;;4.18;1.88;;;;;;;17.89;100.00;101870.03;6302361;28;20056;-72
2023/08/16 06:07:29;;;;;;;4.68;1.88;;;;;;;17.89;100.00;101864.72;6302842;28;20053;-72
2023/08/16 06:10:31;;;;;;;3.17;1.90;;;;;;;17.86;100.00;101858.78;6302567;28;20049;-72
2023/08/16 06:13:33;;;;;;;7.00;2.58;;;;;;;17.84;100.00;101852.69;6282258;28;20041;-72
2023/08/16 06:16:35;;;;;;;6.95;1.88;;;;;;;17.86;100.00;101869.41;6302109;28;20044;-72
2023/08/16 06:19:37;;;;;;;6.32;2.10;;;;;;;17.85;100.00;101860.56;6287474;28;20053;-72
2023/08/16 06:22:38;;;;;;;3.40;1.92;;;;;;;17.86;100.00;101861.44;6265239;28;20433;-72
2023/08/16 06:25:39;;;;;;;3.30;1.85;;;;;;;17.89;100.00;101854.06;6263907;28;20052;-72
2023/08/16 06:28:41;;;;;;;8.15;2.03;;;;;;;17.87;100.00;101856.00;6264665;28;20444;-72
2023/08/16 06:31:45;;;;;;;8.30;2.55;;;;;;;17.89;100.00;101855.88;6263176;28;20049;-72
2023/08/16 06:34:46;;;;;;;4.70;1.75;;;;;;;17.89;100.00;101867.38;6252324;28;20456;-72
2023/08/16 06:37:47;;;;;;;5.05;1.90;;;;;;;17.96;100.00;101870.50;6252286;28;20056;-73
2023/08/16 06:40:49;;;;;;;5.72;1.95;;;;;;;18.01;100.00;101871.03;6252533;28;20060;-73
2023/08/16 06:43:51;;;;;;;3.97;1.98;;;;;;;18.02;100.00;101872.72;6286071;28;20466;-73
2023/08/16 06:46:53;;;;;;;3.63;2.30;;;;;;;18.01;100.00;101873.69;6301971;28;20057;-72
2023/08/16 06:49:55;;;;;;;3.88;2.13;;;;;;;17.96;100.00;101879.31;6301609;28;20061;-73
2023/08/16 06:52:56;;;;;;;5.10;2.72;;;;;;;17.98;100.00;101877.41;6294946;28;20052;-73
2023/08/16 06:55:58;;;;;;;8.63;2.55;;;;;;;17.97;100.00;101883.69;6298672;28;20056;-73
2023/08/16 06:58:59;;;;;;;7.65;3.03;;;;;;;17.98;100.00;101887.19;6301844;28;20131;-73
2023/08/16 07:02:02;;;;;;;6.82;2.42;;;;;;;17.94;100.00;101886.56;6301352;28;20052;-74
2023/08/16 07:05:04;;;;;;;6.80;2.72;;;;;;;17.94;100.00;101896.31;6300340;28;20132;-73
2023/08/16 07:08:06;;;;;;;4.82;2.35;;;;;;;17.95;100.00;101893.59;6301503;28;20056;-73
2023/08/16 07:11:08;;;;;;;4.88;1.80;;;;;;;17.96;100.00;101899.75;6301028;28;20049;-73
2023/08/16 07:14:09;;;;;;;3.58;1.98;;;;;;;17.97;100.00;101898.78;6283417;28;20043;-73
2023/08/16 07:17:12;;;;;;;5.32;1.67;;;;;;;17.97;100.00;101893.47;6272395;28;20055;-72
2023/08/16 07:20:14;;;;;;;3.10;1.67;;;;;;;17.92;100.00;101898.25;6278455;28;20045;-72
2023/08/16 07:23:15;;;;;;;4.82;2.08;;;;;;;17.91;100.00;101909.84;6286230;28;20047;-74
2023/08/16 07:26:16;;;;;;;3.63;2.33;;;;;;;17.89;100.00;101906.41;6283155;28;20051;-72
2023/08/16 07:29:18;;;;;;;3.67;2.05;;;;;;;17.92;100.00;101896.44;6267752;28;20452;-73
2023/08/16 07:32:21;;;;;;;5.03;1.60;;;;;;;17.95;100.00;101892.72;6292051;28;20040;-73
2023/08/16 07:35:22;;;;;;;7.18;2.75;;;;;;;17.93;100.00;101895.47;6286431;28;20057;-73
2023/08/16 07:38:24;;;;;;;5.82;2.17;;;;;;;17.90;100.00;101895.69;6278832;28;20049;-73
2023/08/16 07:41:25;;;;;;;4.07;2.28;;;;;;;17.91;100.00;101897.41;6285525;28;20044;-73
2023/08/16 07:44:27;;;;;;;4.80;1.83;;;;;;;17.90;100.00;101894.84;6275335;28;20365;-73
2023/08/16 07:47:30;;;;;;;3.30;1.83;;;;;;;17.92;100.00;101898.25;6258654;28;20444;-73
2023/08/16 07:50:31;;;;;;;5.05;3.17;;;;;;;17.96;100.00;101911.25;6277582;28;20055;-73
2023/08/16 07:53:33;;;;;;;6.25;2.55;;;;;;;18.04;100.00;101909.91;6290833;28;20049;-73
2023/08/16 07:56:34;;;;;;;7.07;2.10;;;;;;;18.08;100.00;101916.72;6279665;28;20155;-73
2023/08/16 07:59:36;;;;;;;6.45;2.95;;;;;;;18.05;100.00;101924.91;6286171;28;20098;-73
2023/08/16 08:02:39;;;;;;;4.30;2.33;;;;;;;18.06;100.00;101923.94;6295370;28;20488;-73
2023/08/16 08:05:40;;;;;;;6.60;2.40;;;;;;;18.06;100.00;101922.13;6295069;28;20048;-74
2023/08/16 08:08:42;;;;;;;4.45;2.47;;;;;;;18.12;100.00;101921.75;6292351;28;20107;-73
2023/08/16 08:11:44;;;;;;;5.85;3.10;;;;;;;18.12;100.00;101935.03;6282656;28;20057;-73
2023/08/16 08:14:45;;;;;;;7.25;3.10;;;;;;;18.15;100.00;101936.63;6274363;28;20049;-72
2023/08/16 08:17:48;;;;;;;8.45;3.00;;;;;;;18.16;100.00;101936.50;6289822;28;20338;-73
2023/08/16 08:20:50;;;;;;;8.95;2.90;;;;;;;18.15;100.00;101941.94;6285007;28;20052;-73
2023/08/16 08:23:51;;;;;;;4.93;2.83;;;;;;;18.20;100.00;101926.53;6286325;28;20484;-72
2023/08/16 08:26:54;;;;;;;7.13;2.67;;;;;;;18.18;100.00;101921.31;6288378;28;20057;-72
2023/08/16 08:29:55;;;;;;;6.70;2.53;;;;;;;18.17;100.00;101921.44;6282692;28;20048;-73
2023/08/16 08:32:58;;;;;;;4.70;2.58;;;;;;;18.24;100.00;101920.91;6283032;28;20448;-72
2023/08/16 08:36:00;;;;;;;4.82;2.83;;;;;;;18.26;100.00;101920.81;6275562;28;20052;-72
2023/08/16 08:39:01;;;;;;;4.50;2.92;;;;;;;18.21;100.00;101925.56;6288014;28;20057;-72
2023/08/16 08:42:04;;;;;;;3.88;2.38;;;;;;;18.23;100.00;101918.34;6279665;28;20445;-72
2023/08/16 08:45:07;;;;;;;3.85;2.45;;;;;;;18.24;100.00;101922.72;6279563;28;20057;-72
2023/08/16 08:48:12;;;;;;;7.22;2.78;;;;;;;18.29;100.00;101931.22;6285318;28;20045;-72
2023/08/16 08:51:14;;;;;;;4.30;2.03;;;;;;;18.30;100.00;101932.09;6274112;28;20056;-72
2023/08/16 08:54:15;;;;;;;5.82;2.50;;;;;;;18.27;100.00;101940.28;6294441;28;20040;-72
2023/08/16 08:57:19;;;;;;;8.90;2.28;;;;;;;18.35;100.00;101927.31;6295321;28;20068;-72
2023/08/16 09:00:21;;;;;;;5.22;2.58;;;;;;;18.35;100.00;101928.19;6304259;28;20048;-73
2023/08/16 09:03:25;;;;;;;3.22;1.77;;;;;;;18.35;100.00;101919.31;6304338;28;20059;-72
2023/08/16 09:06:27;;;;;;;9.30;3.78;;;;;;;18.28;100.00;101924.22;6303798;28;20053;-73
2023/08/16 09:09:29;;;;;;;7.20;2.60;;;;;;;18.29;100.00;101927.72;6303938;28;20044;-73
2023/08/16 09:12:31;;;;;;;5.68;2.38;;;;;;;18.33;100.00;101935.41;6304090;28;20135;-73
2023/08/16 09:15:33;;;;;;;6.30;1.83;;;;;;;18.38;100.00;101941.25;6303639;28;20059;-73
2023/08/16 09:18:36;;;;;;;3.83;2.20;;;;;;;18.45;100.00;101941.72;6304172;28;20048;-73
2023/08/16 09:21:38;;;;;;;4.40;2.45;;;;;;;18.50;100.00;101947.59;6299993;28;20130;-73
2023/08/16 09:24:42;;;;;;;2.92;1.70;;;;;;;18.49;100.00;101954.72;6283742;28;20045;-73
2023/08/16 09:27:43;;;;;;;6.10;2.40;;;;;;;18.50;100.00;101959.09;6298019;28;20045;-73
2023/08/16 09:30:45;;;;;;;5.85;2.47;;;;;;;18.50;100.00;101952.91;6303317;28;20044;-73
2023/08/16 09:33:53;;;;;;;3.95;2.50;;;;;;;18.52;100.00;101957.16;6303519;28;20044;-72
2023/08/16 09:36:55;;;;;;;5.97;2.25;;;;;;;18.55;100.00;101945.47;6303338;28;20080;-73
2023/08/16 09:39:57;;;;;;;6.60;2.50;;;;;;;18.59;100.00;101943.44;6303516;28;20055;-73
2023/08/16 09:43:00;;;;;;;5.05;2.30;;;;;;;18.58;100.00;101947.91;6303426;28;20348;-73
2023/08/16 09:46:03;;;;;;;5.88;2.38;;;;;;;18.61;100.00;101946.84;6289629;28;20052;-73
2023/08/16 09:49:08;;;;;;;6.60;2.80;;;;;;;18.62;100.00;101938.78;6278416;28;20056;-73
2023/08/16 09:52:10;;;;;;;3.50;2.10;;;;;;;18.66;100.00;101937.56;6284376;28;20048;-73
2023/08/16 09:55:12;;;;;;;4.95;2.45;;;;;;;18.67;100.00;101935.78;6292809;28;20559;-73
2023/08/16 09:58:15;;;;;;;5.68;2.38;;;;;;;18.59;100.00;101938.97;6303054;28;20052;-73
2023/08/16 10:01:16;;;;;;;5.55;2.20;;;;;;;18.60;100.00;101932.69;6285414;28;20072;-73
2023/08/16 10:04:19;;;;;;;3.65;2.13;;;;;;;18.66;100.00;101924.25;6293725;28;20048;-74
2023/08/16 10:07:23;;;;;;;5.50;2.38;;;;;;;18.71;100.00;101924.88;6302861;28;20146;-73
2023/08/16 10:10:25;;;;;;;3.60;2.10;;;;;;;18.76;100.00;101919.22;6302098;28;20045;-74
2023/08/16 10:13:27;;;;;;;5.60;2.70;;;;;;;18.81;100.00;101933.06;6302348;28;20047;-73
2023/08/16 10:16:30;;;;;;;9.65;2.80;;;;;;;18.80;100.00;101946.47;6302240;28;20045;-73
2023/08/16 10:19:36;;;;;;;4.10;2.42;;;;;;;18.75;100.00;101958.28;6302455;28;20348;-72
2023/08/16 10:22:40;;;;;;;6.65;2.35;;;;;;;18.75;100.00;101944.97;6290555;28;20053;-73
2023/08/16 10:25:45;;;;;;;2.67;1.80;;;;;;;18.80;100.00;101942.00;6277315;28;20049;-73
2023/08/16 10:28:50;;;;;;;2.58;2.10;;;;;;;18.83;100.00;101936.47;6320952;22;20049;-72
2023/08/16 10:31:53;;;;;;;6.00;2.00;;;;;;;18.91;100.00;101935.94;6302327;28;20309;-73
2023/08/16 10:34:58;;;;;;;5.72;2.30;;;;;;;18.86;100.00;101924.75;6301404;28;20044;-72
2023/08/16 10:37:59;;;;;;;4.70;1.80;;;;;;;18.85;100.00;101925.69;6276352;28;20052;-72
2023/08/16 10:41:01;;;;;;;2.75;1.60;;;;;;;18.89;100.00;101929.84;6276982;28;20056;-72
2023/08/16 10:44:02;;;;;;;2.63;1.48;;;;;;;18.90;100.00;101931.56;6295069;28;20044;-72
2023/08/16 10:47:04;;;;;;;3.08;1.50;;;;;;;18.99;100.00;101922.94;6300818;28;20052;-73
2023/08/16 10:50:09;;;;;;;3.35;1.50;;;;;;;19.05;100.00;101925.16;6301620;28;20075;-72
2023/08/16 10:53:12;;;;;;;6.72;1.48;;;;;;;19.07;100.00;101925.91;6301440;28;20044;-73
2023/08/16 10:56:13;;;;;;;3.58;1.67;;;;;;;19.13;100.00;101925.47;6301343;28;20080;-73
2023/08/16 10:59:16;;;;;;;5.43;1.63;;;;;;;19.22;100.00;101932.81;6300774;28;20059;-73
2023/08/16 11:02:18;;;;;;;3.00;1.70;;;;;;;19.24;100.00;101922.91;6300384;28;20047;-73
2023/08/16 11:05:24;;;;;;;2.10;1.40;;;;;;;19.23;100.00;101929.19;6298419;28;20123;-72
2023/08/16 11:08:29;;;;;;;6.18;1.38;;;;;;;19.26;100.00;101928.13;6295437;28;20056;-73
2023/08/16 11:11:30;;;;;;;2.47;1.27;;;;;;;19.26;100.00;101938.78;6292695;28;20052;-72
2023/08/16 11:14:32;;;;;;;2.70;1.27;;;;;;;19.27;100.00;101940.50;6300060;28;20045;-72
2023/08/16 11:17:35;;;;;;;3.38;1.85;;;;;;;19.33;100.00;101933.88;6300816;28;20135;-73
2023/08/16 11:20:38;;;;;;;3.25;1.48;;;;;;;19.37;100.00;101928.22;6300898;28;20359;-72
2023/08/16 11:23:41;;;;;;;3.28;1.50;;;;;;;19.42;100.00;101927.88;6300652;28;20047;-72
2023/08/16 11:26:42;;;;;;;3.33;1.23;;;;;;;19.42;100.00;101931.41;6300136;28;20045;-72
2023/08/16 11:29:48;;;;;;;1.70;1.05;;;;;;;19.45;100.00;101930.34;6300638;28;20143;-73
2023/08/16 11:32:50;;;;;;;2.75;1.20;;;;;;;19.46;100.00;101926.69;6300348;28;20075;-72
2023/08/16 11:35:54;;;;;;;1.17;1.08;;;;;;;19.47;100.00;101931.91;6300062;28;20466;-73
2023/08/16 11:38:56;;;;;;;4.40;1.33;;;;;;;19.50;100.00;101931.69;6300539;28;20329;-73
2023/08/16 11:41:57;;;;;;;1.75;1.00;;;;;;;19.48;100.00;101938.09;6300290;28;20063;-73
2023/08/16 11:44:59;;;;;;;1.33;1.05;;;;;;;19.47;100.00;101934.56;6300119;28;20051;-73
2023/08/16 11:48:03;;;;;;;4.18;1.40;;;;;;;19.47;100.00;101921.25;6300112;28;20044;-73
2023/08/16 11:51:11;;;;;;;2.88;1.40;;;;;;;19.45;100.00;101927.66;6291368;28;20041;-72
2023/08/16 11:54:21;;;;;;;1.60;1.23;;;;;;;19.46;100.00;101930.22;6298431;28;20063;-72
2023/08/16 11:57:24;;;;;;;1.77;1.08;;;;;;;19.47;100.00;101931.06;6300299;28;20052;-72
2023/08/16 12:00:26;;;;;;;2.17;1.17;;;;;;;19.55;100.00;101939.38;6299893;28;20060;-72
2023/08/16 12:03:33;;;;;;;3.75;1.38;;;;;;;19.58;100.00;101935.63;6300337;28;20048;-72
2023/08/16 12:06:46;;;;;;;2.10;1.00;;;;;;;19.61;100.00;101938.09;6299755;28;20044;-72
2023/08/16 12:09:49;;;;;;;5.63;1.20;;;;;;;19.66;100.00;101930.59;6300244;28;20048;-72
2023/08/16 12:12:52;;;;;;;2.08;1.15;;;;;;;19.71;100.00;101937.34;6300001;28;20425;-72
2023/08/16 12:15:53;;;;;;;1.20;1.10;;;;;;;19.77;100.00;101930.69;6299634;28;20044;-72
2023/08/16 12:18:55;;;;;;;1.08;0.98;;;;;;;19.80;100.00;101929.59;6299968;28;20464;-71
2023/08/16 12:21:58;;;;;;;1.80;1.10;;;;;;;19.81;100.00;101931.31;6299920;28;20458;-71
2023/08/16 12:24:59;;;;;;;3.25;0.95;;;;;;;19.87;100.00;101930.88;6299514;28;20424;-72
2023/08/16 12:28:01;;;;;;;2.55;1.23;;;;;;;19.90;100.00;101926.16;6299826;28;20052;-72
2023/08/16 12:31:04;;;;;;;2.33;1.05;;;;;;;19.97;100.00;101923.88;6299760;28;20471;-72
2023/08/16 12:34:07;;;;;;;5.85;1.15;;;;;;;20.05;100.00;101918.81;6299260;28;20076;-72
2023/08/16 12:37:10;;;;;;;1.90;0.85;;;;;;;20.13;100.00;101911.09;6300003;28;20053;-72
2023/08/16 12:40:12;;;;;;;3.40;1.02;;;;;;;20.18;100.00;101908.94;6299636;28;20143;-72
2023/08/16 12:43:13;;;;;;;1.25;1.13;;;;;;;20.18;100.00;101914.28;6299613;28;20447;-72
2023/08/16 12:46:15;;;;;;;1.33;1.17;;;;;;;20.18;100.00;101911.59;6298888;28;20059;-72
2023/08/16 12:49:16;;;;;;;1.95;1.08;;;;;;;20.17;100.00;101911.72;6299544;28;20057;-72
2023/08/16 12:52:20;;;;;;;4.10;1.20;;;;;;;20.14;100.00;101915.47;6299550;28;20059;-71
2023/08/16 12:55:21;;;;;;;3.25;1.23;;;;;;;20.14;100.00;101915.47;6299246;28;20051;-72
2023/08/16 12:58:23;;;;;;;2.22;1.10;;;;;;;20.09;100.00;101916.78;6300243;28;20048;-72
2023/08/16 13:01:24;;;;;;;5.65;1.40;;;;;;;20.09;100.00;101914.97;6300438;28;20059;-72
2023/08/16 13:04:26;;;;;;;2.97;1.35;;;;;;;20.06;100.00;101909.00;6303981;28;20044;-72
2023/08/16 13:07:29;;;;;;;4.07;1.55;;;;;;;20.08;100.00;101913.28;6304350;28;20053;-71
2023/08/16 13:10:31;;;;;;;2.60;1.42;;;;;;;20.10;100.00;101907.81;6304025;28;20059;-71
2023/08/16 13:13:32;;;;;;;2.10;1.13;;;;;;;20.10;100.00;101907.81;6301829;28;20344;-72
2023/08/16 13:16:33;;;;;;;6.20;1.40;;;;;;;20.11;100.00;101907.69;6297236;28;20360;-73
2023/08/16 13:19:35;;;;;;;2.00;1.10;;;;;;;20.11;100.00;101907.69;6301028;28;20055;-73
2023/08/16 13:22:38;;;;;;;1.42;1.00;;;;;;;20.14;100.00;101907.47;6302500;28;20060;-72
2023/08/16 13:25:39;;;;;;;3.75;1.58;;;;;;;20.14;100.00;101907.47;6303173;28;20049;-73
2023/08/16 13:28:40;;;;;;;5.60;1.40;;;;;;;20.16;100.00;101902.00;6303082;28;20067;-73
2023/08/16 13:31:42;;;;;;;3.83;1.20;;;;;;;20.19;100.00;101904.44;6303511;28;20055;-73
2023/08/16 13:34:43;;;;;;;2.22;1.40;;;;;;;20.27;100.00;101891.38;6303581;28;20055;-73
2023/08/16 13:37:46;;;;;;;5.40;1.88;;;;;;;20.38;100.00;101895.88;6303343;28;20474;-73
2023/08/16 13:40:48;;;;;;;1.50;1.30;;;;;;;20.44;100.00;101896.28;6303539;28;20052;-73
2023/08/16 13:43:50;;;;;;;1.20;1.10;;;;;;;20.49;100.00;101888.78;6303627;28;20060;-72
2023/08/16 13:46:51;;;;;;;2.28;1.30;;;;;;;20.55;100.00;101886.63;6302920;28;20056;-73
2023/08/16 13:49:53;;;;;;;2.17;1.23;;;;;;;20.60;100.00;101885.28;6303344;28;20044;-73
2023/08/16 13:52:56;;;;;;;3.60;1.33;;;;;;;20.63;100.00;101889.56;6297484;28;20047;-73
2023/08/16 13:56:00;;;;;;;1.77;1.08;;;;;;;20.59;100.00;101891.59;6302660;28;20044;-73
2023/08/16 13:59:02;;;;;;;7.80;2.70;;;;;;;20.58;100.00;101881.91;6302728;28;20059;-73